createdAt,value
2023-03-21T00:04:50.924Z,100955.53
2023-03-21T00:09:59.108Z,100953.06
2023-03-21T00:15:08.478Z,100952.91
2023-03-21T00:20:16.215Z,100945.47
2023-03-21T00:25:19.898Z,100941.03
2023-03-21T00:30:21.481Z,100942.16
2023-03-21T00:40:49.161Z,100931.88
2023-03-21T00:45:51.629Z,100925.78
2023-03-21T00:50:55.544Z,100914.69
2023-03-21T00:55:57.205Z,100907.91
2023-03-21T01:01:05.066Z,100894.22
2023-03-21T01:06:07.581Z,100885.88
2023-03-21T01:11:13.933Z,100886.97
2023-03-21T01:16:15.627Z,100874.22
2023-03-21T01:21:17.823Z,100864.72
2023-03-21T01:26:20.130Z,100858.22
2023-03-21T01:31:21.918Z,100849.41
2023-03-21T01:36:26.528Z,100827.13
2023-03-21T01:41:43.080Z,100814.44
2023-03-21T01:47:12.299Z,100808.13
2023-03-21T01:52:36.583Z,100786.88
2023-03-21T01:58:04.461Z,100792.50
2023-03-21T02:03:26.195Z,100777.50
2023-03-21T02:08:44.102Z,100764.63
2023-03-21T02:13:53.612Z,100754.19
2023-03-21T02:19:01.676Z,100743.72
2023-03-21T02:25:01.542Z,100740.34
2023-03-21T02:30:45.609Z,100734.53
2023-03-21T02:35:54.217Z,100730.16
2023-03-21T02:41:20.050Z,100721.66
2023-03-21T02:46:42.954Z,100712.72
2023-03-21T02:51:49.894Z,100710.19
2023-03-21T02:56:53.539Z,100692.97
2023-03-21T03:01:58.140Z,100689.47
2023-03-21T03:07:03.541Z,100686.13
2023-03-21T03:12:21.009Z,100686.09
2023-03-21T03:17:44.507Z,100677.13
2023-03-21T03:23:04.779Z,100673.84
2023-03-21T03:28:08.195Z,100668.69
2023-03-21T03:33:10.944Z,100666.94
2023-03-21T03:38:14.328Z,100663.72
2023-03-21T03:43:22.568Z,100654.22
2023-03-21T03:48:38.064Z,100652.53
2023-03-21T03:53:51.149Z,100647.50
2023-03-21T03:58:53.290Z,100656.81
2023-03-21T04:04:12.580Z,100654.28
2023-03-21T04:09:20.960Z,100653.25
2023-03-21T04:14:35.528Z,100658.56
2023-03-21T04:19:40.745Z,100651.41
2023-03-21T04:24:42.913Z,100641.66
2023-03-21T04:29:44.816Z,100631.13
2023-03-21T04:34:54.330Z,100627.50
2023-03-21T04:39:57.465Z,100621.38
2023-03-21T04:44:59.504Z,100619.53
2023-03-21T04:50:02.179Z,100605.84
2023-03-21T04:55:04.196Z,100594.78
2023-03-21T05:00:11.001Z,100593.84
2023-03-21T05:05:13.679Z,100588.53
2023-03-21T05:10:17.774Z,100583.84
2023-03-21T05:15:20.480Z,100590.75
2023-03-21T05:20:22.186Z,100590.56
2023-03-21T05:25:34.108Z,100590.13
2023-03-21T05:30:58.590Z,100588.41
2023-03-21T05:36:01.550Z,100590.03
2023-03-21T05:41:06.725Z,100583.25
2023-03-21T05:46:09.344Z,100573.75
2023-03-21T05:51:11.197Z,100568.50
2023-03-21T05:56:13.100Z,100561.94
2023-03-21T06:01:26.597Z,100564.03
2023-03-21T06:06:39.969Z,100565.88
2023-03-21T06:11:47.347Z,100559.38
2023-03-21T06:16:56.836Z,100557.34
2023-03-21T06:21:58.610Z,100533.81
2023-03-21T06:27:02.826Z,100531.19
2023-03-21T06:32:14.495Z,100520.88
2023-03-21T06:37:16.303Z,100521.63
2023-03-21T06:42:18.232Z,100521.88
2023-03-21T06:47:20.223Z,100516.03
2023-03-21T06:52:21.887Z,100519.38
2023-03-21T06:57:26.428Z,100518.72
2023-03-21T07:02:28.960Z,100517.38
2023-03-21T07:07:50.438Z,100524.28
2023-03-21T07:12:52.984Z,100519.38
2023-03-21T07:17:56.801Z,100533.91
2023-03-21T07:22:58.872Z,100533.47
2023-03-21T07:28:04.572Z,100540.34
2023-03-21T07:33:07.412Z,100539.97
2023-03-21T07:38:09.237Z,100536.06
2023-03-21T07:43:11.341Z,100547.50
2023-03-21T07:48:18.381Z,100556.16
2023-03-21T07:53:20.721Z,100564.97
2023-03-21T07:58:24.173Z,100579.19
2023-03-21T08:03:29.236Z,100590.97
2023-03-21T08:08:31.413Z,100612.09
2023-03-21T08:13:33.818Z,100629.81
2023-03-21T08:18:35.460Z,100624.91
2023-03-21T08:23:37.052Z,100637.50
2023-03-21T08:28:39.622Z,100641.38
2023-03-21T08:33:41.320Z,100652.44
2023-03-21T08:38:43.648Z,100652.53
2023-03-21T08:43:45.244Z,100655.28
2023-03-21T08:48:47.047Z,100644.41
2023-03-21T08:53:51.500Z,100633.03
2023-03-21T08:58:53.117Z,100620.84
2023-03-21T09:03:54.811Z,100613.56
2023-03-21T09:08:56.918Z,100577.25
2023-03-21T09:13:58.521Z,100560.72
2023-03-21T09:19:00.445Z,100546.13
2023-03-21T09:24:02.886Z,100528.59
2023-03-21T09:29:06.069Z,100533.53
2023-03-21T09:34:08.358Z,100524.38
2023-03-21T09:39:11.554Z,100510.25
2023-03-21T09:44:34.756Z,100504.75
2023-03-21T09:49:43.618Z,100496.44
2023-03-21T09:54:45.241Z,100492.84
2023-03-21T09:59:50.658Z,100485.91
2023-03-21T10:04:52.991Z,100484.53
2023-03-21T10:09:56.356Z,100495.41
2023-03-21T10:15:01.512Z,100486.25
2023-03-21T10:20:23.479Z,100468.16
2023-03-21T10:25:31.721Z,100475.44
2023-03-21T10:30:56.457Z,100470.41
2023-03-21T10:36:21.231Z,100482.38
2023-03-21T10:41:22.793Z,100479.34
2023-03-21T10:46:27.386Z,100466.09
2023-03-21T10:51:35.533Z,100449.41
2023-03-21T10:56:40.468Z,100451.25
2023-03-21T11:01:43.929Z,100442.13
2023-03-21T11:06:52.386Z,100441.31
2023-03-21T11:12:11.526Z,100457.13
2023-03-21T11:17:28.667Z,100484.13
2023-03-21T11:22:39.061Z,100494.72
2023-03-21T11:27:53.122Z,100514.09
2023-03-21T11:32:57.627Z,100538.31
2023-03-21T11:37:59.284Z,100553.00
2023-03-21T11:43:03.857Z,100581.59
2023-03-21T11:48:13.443Z,100574.16
2023-03-21T11:53:28.086Z,100589.06
2023-03-21T11:58:32.794Z,100607.56
2023-03-21T12:04:04.313Z,100633.25
2023-03-21T12:09:23.118Z,100624.94
2023-03-21T12:14:32.745Z,100627.81
2023-03-21T12:19:53.059Z,100636.22
2023-03-21T12:24:55.926Z,100647.69
2023-03-21T12:30:13.403Z,100644.06
2023-03-21T12:35:18.852Z,100660.25
2023-03-21T12:40:48.359Z,100650.50
2023-03-21T12:45:56.004Z,100689.28
2023-03-21T12:51:02.144Z,100689.59
2023-03-21T12:56:09.908Z,100706.44
2023-03-21T13:01:13.280Z,100689.56
2023-03-21T13:06:18.369Z,100689.50
2023-03-21T13:11:24.786Z,100695.34
2023-03-21T13:16:44.668Z,100715.25
2023-03-21T13:21:57.460Z,100686.22
2023-03-21T13:27:07.076Z,100685.19
2023-03-21T13:32:16.791Z,100685.63
2023-03-21T13:37:19.485Z,100680.25
2023-03-21T13:42:24.384Z,100685.78
2023-03-21T13:47:47.834Z,100691.69
2023-03-21T13:53:19.619Z,100699.19
2023-03-21T13:58:53.120Z,100728.41
2023-03-21T14:04:12.987Z,100746.78
2023-03-21T14:09:29.967Z,100745.25
2023-03-21T14:14:41.852Z,100784.81
2023-03-21T14:19:43.536Z,100791.13
2023-03-21T14:24:54.777Z,100801.41
2023-03-21T14:29:58.420Z,100774.47
2023-03-21T14:35:01.401Z,100776.97
2023-03-21T14:40:13.419Z,100809.28
2023-03-21T14:45:27.385Z,100844.06
2023-03-21T14:50:40.261Z,100824.56
2023-03-21T14:55:47.587Z,100846.56
2023-03-21T15:00:54.739Z,100810.69
2023-03-21T15:05:57.788Z,100817.75
2023-03-21T15:11:08.804Z,100805.72
2023-03-21T15:16:11.951Z,100824.34
2023-03-21T15:21:26.624Z,100840.13
2023-03-21T15:26:31.840Z,100833.72
2023-03-21T15:31:42.296Z,100834.56
2023-03-21T15:36:47.216Z,100834.53
2023-03-21T15:42:05.571Z,100829.38
2023-03-21T15:47:13.557Z,100809.38
2023-03-21T15:52:17.012Z,100806.91
2023-03-21T15:57:33.237Z,100796.31
2023-03-21T16:02:35.047Z,100784.44
2023-03-21T16:07:36.715Z,100790.47
2023-03-21T16:12:38.291Z,100782.22
2023-03-21T16:17:41.666Z,100769.53
2023-03-21T16:22:43.296Z,100778.97
2023-03-21T16:27:46.636Z,100788.25
2023-03-21T16:32:50.165Z,100778.59
2023-03-21T16:37:51.897Z,100768.03
2023-03-21T16:42:53.798Z,100763.94
2023-03-21T16:47:55.752Z,100733.56
2023-03-21T16:52:57.932Z,100724.13
2023-03-21T16:57:59.654Z,100719.66
2023-03-21T17:03:05.983Z,100717.06
2023-03-21T17:08:07.709Z,100722.41
2023-03-21T17:13:09.300Z,100723.16
2023-03-21T17:18:12.190Z,100724.84
2023-03-21T17:23:13.723Z,100721.41
2023-03-21T17:28:15.612Z,100720.47
2023-03-21T17:33:17.205Z,100712.47
2023-03-21T17:38:19.042Z,100722.94
2023-03-21T17:43:21.634Z,100739.22
2023-03-21T17:48:23.252Z,100744.22
2023-03-21T17:53:26.696Z,100729.56
2023-03-21T17:58:28.523Z,100715.56
2023-03-21T18:03:30.138Z,100710.41
2023-03-21T18:08:32.273Z,100713.81
2023-03-21T18:13:33.998Z,100715.50
2023-03-21T18:18:35.996Z,100694.00
2023-03-21T18:23:41.341Z,100682.53
2023-03-21T18:28:43.684Z,100668.56
2023-03-21T18:33:48.113Z,100652.13
2023-03-21T18:38:52.127Z,100614.69
2023-03-21T18:44:02.711Z,100591.03
2023-03-21T18:49:42.215Z,100565.78
2023-03-21T18:54:31.093Z,100522.75
2023-03-21T18:59:34.704Z,100502.53
2023-03-21T19:04:37.494Z,100490.25
2023-03-21T19:10:01.614Z,100464.94
2023-03-21T19:15:01.066Z,100461.84
2023-03-21T19:20:02.731Z,100455.88
2023-03-21T19:25:05.697Z,100441.38
2023-03-21T19:30:15.111Z,100448.09
2023-03-21T19:35:17.516Z,100441.16
2023-03-21T19:40:20.058Z,100423.09
2023-03-21T19:45:21.791Z,100418.69
2023-03-21T19:50:49.296Z,100403.97
2023-03-21T19:55:52.140Z,100389.69
2023-03-21T20:00:53.813Z,100384.34
2023-03-21T20:06:07.405Z,100395.91
2023-03-21T20:11:09.091Z,100389.19
2023-03-21T20:16:11.142Z,100402.28
2023-03-21T20:21:17.572Z,100407.31
2023-03-21T20:26:20.406Z,100402.13
2023-03-21T20:31:23.641Z,100411.53
2023-03-21T20:36:43.119Z,100408.03
2023-03-21T20:41:46.717Z,100399.97
2023-03-21T20:46:48.504Z,100396.38
2023-03-21T20:52:49.366Z,100389.38
2023-03-21T20:57:12.409Z,100370.34
2023-03-21T21:02:14.891Z,100373.94
2023-03-21T21:07:17.938Z,100359.25
2023-03-21T21:12:21.614Z,100360.81
2023-03-21T21:17:40.645Z,100346.41
2023-03-21T21:22:59.111Z,100334.53
2023-03-21T21:28:02.986Z,100335.38
2023-03-21T21:33:05.447Z,100341.84
2023-03-21T21:38:07.309Z,100332.31
2023-03-21T21:43:09.404Z,100314.53
2023-03-21T21:48:11.748Z,100321.28
2023-03-21T21:53:13.745Z,100307.69
2023-03-21T21:58:18.755Z,100310.19
2023-03-21T22:03:22.545Z,100316.88
2023-03-21T22:08:26.454Z,100313.06
2023-03-21T22:13:28.471Z,100313.16
2023-03-21T22:18:30.032Z,100307.06
2023-03-21T22:23:31.744Z,100296.75
2023-03-21T22:28:34.606Z,100281.25
2023-03-21T22:33:36.267Z,100287.22
2023-03-21T22:38:38.229Z,100287.03
2023-03-21T22:43:40.098Z,100288.78
2023-03-21T22:48:41.844Z,100290.63
2023-03-21T22:53:43.359Z,100296.66
2023-03-21T22:58:45.104Z,100296.78
2023-03-21T23:03:46.675Z,100299.34
2023-03-21T23:08:48.304Z,100304.31
2023-03-21T23:14:05.070Z,100305.31
2023-03-21T23:19:10.485Z,100311.09
2023-03-21T23:24:12.364Z,100318.28
2023-03-21T23:29:14.117Z,100322.31
2023-03-21T23:34:16.020Z,100328.66
2023-03-21T23:39:18.706Z,100319.34
2023-03-21T23:44:20.580Z,100319.34
2023-03-21T23:49:22.164Z,100323.66
2023-03-21T23:54:23.910Z,100321.75
2023-03-21T23:59:25.479Z,100325.41
